Time;durP1;ratioP1;P1;durP2;ratioP2;P2;SDS_P1;SDS_P2;PMS_P1;PMS_P2;Temp;Humidity;BMP_temperature;BMP_pressure;BME280_temperature;BME280_humidity;BME280_pressure;Samples;Min_cycle;Max_cycle;Signal;HPM_P1;HPM_P2
2022/02/14 01:46:31;;;;;;;;;;;;;;;6.64;80.72;99769.34;56628;54;149369316;31
2022/02/14 01:49:04;;;;;;;;;;;;;;;6.67;80.51;99758.06;2568659;30;136839;-38
2022/02/14 01:51:32;;;;;;;;;;;;;;;6.68;80.39;99753.47;2565643;30;138460;-38
2022/02/14 01:54:01;;;;;;;;;;;;;;;6.62;80.78;99747.84;2566966;30;137845;-38
2022/02/14 01:56:29;;;;;;;;;;;;;;;6.61;80.84;99753.47;2569702;30;137116;-38
2022/02/14 01:58:57;;;;;;;;;;;;;;;6.68;80.75;99748.88;2569381;30;137941;-38
2022/02/14 02:01:24;;;;;;;;;;;;;;;6.67;80.65;99741.81;2568583;30;136662;-38
2022/02/14 02:03:52;;;;;;;;;;;;;;;6.60;80.97;99730.13;2568235;30;137827;-38
2022/02/14 02:06:20;;;;;;;;;;;;;;;6.69;80.84;99728.88;2567911;30;138523;-38
2022/02/14 02:08:48;;;;;;;;;;;;;;;6.69;81.21;99718.03;2568740;30;137090;-38
2022/02/14 02:14:02;;;;;;;;;;;;;;;6.75;80.51;99706.31;2567749;30;137785;-38
2022/02/14 02:16:30;;;;;;;;;;;;;;;6.81;80.89;99709.22;2566904;30;137318;-38
2022/02/14 02:18:58;;;;;;;;;;;;;;;6.88;80.10;99713.56;2567964;30;137025;-38
2022/02/14 02:21:25;;;;;;;;;;;;;;;6.88;80.41;99704.59;2568071;30;138365;-38
2022/02/14 02:23:56;;;;;;;;;;;;;;;6.80;81.20;99688.56;2567092;30;136853;-38
2022/02/14 02:26:30;;;;;;;;;;;;;;;6.75;81.12;99692.75;2569115;30;137211;-38
2022/02/14 02:28:58;;;;;;;;;;;;;;;6.77;80.81;99689.84;2568327;30;137295;-38
2022/02/14 02:31:26;;;;;;;;;;;;;;;6.79;81.06;99689.63;2568885;30;137873;-38
2022/02/14 02:33:54;;;;;;;;;;;;;;;6.81;81.22;99679.38;2568574;30;137593;-38
2022/02/14 02:36:21;;;;;;;;;;;;;;;6.87;80.52;99665.81;2568209;30;136679;-38
2022/02/14 02:38:49;;;;;;;;;;;;;;;6.89;80.45;99661.00;2568567;30;137236;-38
2022/02/14 02:41:17;;;;;;;;;;;;;;;6.83;80.65;99663.72;2567431;30;138778;-38
2022/02/14 02:43:45;;;;;;;;;;;;;;;6.83;80.76;99656.44;2568521;30;137729;-38
2022/02/14 02:46:13;;;;;;;;;;;;;;;6.78;80.69;99650.84;2568709;30;138179;-38
2022/02/14 02:48:41;;;;;;;;;;;;;;;6.83;80.68;99653.75;2567652;30;137232;-38
2022/02/14 02:51:08;;;;;;;;;;;;;;;6.76;81.00;99640.22;2568150;30;138503;-38
2022/02/14 02:53:36;;;;;;;;;;;;;;;6.83;80.73;99636.63;2568452;30;137172;-38
2022/02/14 02:56:04;;;;;;;;;;;;;;;6.79;81.06;99635.41;2568782;30;138380;-38
2022/02/14 02:58:32;;;;;;;;;;;;;;;6.87;80.86;99627.84;2565758;30;136992;-38
2022/02/14 03:01:00;;;;;;;;;;;;;;;6.89;80.41;99622.19;2567673;30;139281;-38
2022/02/14 03:03:27;;;;;;;;;;;;;;;6.86;80.97;99628.91;2568147;30;136986;-38
2022/02/14 03:05:56;;;;;;;;;;;;;;;6.86;80.63;99625.34;2566472;30;138837;-38
2022/02/14 03:08:24;;;;;;;;;;;;;;;6.86;80.53;99630.75;2568573;30;137646;-38
2022/02/14 03:10:51;;;;;;;;;;;;;;;6.87;80.78;99627.00;2565901;30;138341;-38
2022/02/14 03:13:19;;;;;;;;;;;;;;;6.90;80.36;99623.88;2568785;30;137347;-38
2022/02/14 03:15:48;;;;;;;;;;;;;;;6.95;80.24;99618.63;2567315;30;137627;-38
2022/02/14 03:18:15;;;;;;;;;;;;;;;6.95;80.54;99618.63;2567927;30;136933;-37
2022/02/14 03:20:43;;;;;;;;;;;;;;;6.88;80.56;99615.09;2568332;30;138351;-38
2022/02/14 03:23:11;;;;;;;;;;;;;;;6.89;80.66;99614.06;2565581;30;137113;-38
2022/02/14 03:25:39;;;;;;;;;;;;;;;6.82;81.00;99619.53;2569004;30;138394;-38
2022/02/14 03:28:07;;;;;;;;;;;;;;;6.86;80.63;99609.06;2568408;30;137232;-38
2022/02/14 03:30:34;;;;;;;;;;;;;;;6.78;81.07;99606.63;2565807;30;138031;-38
2022/02/14 03:33:02;;;;;;;;;;;;;;;6.76;81.07;99604.97;2567497;30;137015;-38
2022/02/14 03:35:30;;;;;;;;;;;;;;;6.72;81.23;99597.47;2568086;30;138296;-38
2022/02/14 03:37:59;;;;;;;;;;;;;;;6.66;81.71;99587.50;2565652;30;139232;-38
2022/02/14 03:40:27;;;;;;;;;;;;;;;6.69;81.45;99587.06;2566873;30;140110;-38
2022/02/14 03:42:56;;;;;;;;;;;;;;;6.63;81.70;99583.38;2564878;38;137076;-38
2022/02/14 03:45:24;;;;;;;;;;;;;;;6.62;81.85;99603.34;2566362;30;138012;-38
2022/02/14 03:47:52;;;;;;;;;;;;;;;6.68;81.76;99605.22;2568190;30;137153;-38
2022/02/14 03:50:20;;;;;;;;;;;;;;;6.74;81.12;99593.50;2568367;30;138335;-38
2022/02/14 03:52:48;;;;;;;;;;;;;;;6.66;81.40;99603.78;2568228;30;138471;-38
2022/02/14 03:55:16;;;;;;;;;;;;;;;6.66;81.88;99599.19;2565434;30;138549;-38
2022/02/14 03:57:45;;;;;;;;;;;;;;;6.62;82.00;99595.22;2567554;30;137834;-37
2022/02/14 04:00:13;;;;;;;;;;;;;;;6.62;82.05;99597.94;2567173;30;138430;-38
2022/02/14 04:02:42;;;;;;;;;;;;;;;6.66;82.17;99598.34;2567631;30;137235;-38
2022/02/14 04:05:14;;;;;;;;;;;;;;;6.59;82.48;99592.97;2566655;30;138366;-38
2022/02/14 04:07:41;;;;;;;;;;;;;;;6.58;82.37;99592.13;2568954;30;137064;-38
2022/02/14 04:10:10;;;;;;;;;;;;;;;6.66;82.23;99595.63;2568086;30;137547;-38
2022/02/14 04:12:38;;;;;;;;;;;;;;;6.67;82.25;99595.44;2568215;30;137366;-38
2022/02/14 04:15:07;;;;;;;;;;;;;;;6.64;82.82;99587.75;2569730;30;138410;-38
2022/02/14 04:17:34;;;;;;;;;;;;;;;6.67;82.87;99590.00;2568703;30;137479;-38
2022/02/14 04:20:03;;;;;;;;;;;;;;;6.73;82.67;99574.75;2568349;30;139072;-38
2022/02/14 04:22:31;;;;;;;;;;;;;;;6.74;82.90;99573.69;2567016;30;137497;-38
2022/02/14 04:24:59;;;;;;;;;;;;;;;6.85;82.07;99569.44;2569326;30;138688;-38
2022/02/14 04:27:29;;;;;;;;;;;;;;;6.89;81.78;99567.97;2569048;30;137040;-38
2022/02/14 04:29:59;;;;;;;;;;;;;;;6.87;82.06;99570.91;2567972;30;137133;-38
2022/02/14 04:32:27;;;;;;;;;;;;;;;6.92;81.58;99567.56;2568564;30;138057;-38
2022/02/14 04:34:55;;;;;;;;;;;;;;;7.04;81.83;99573.91;2568978;30;138421;-38
2022/02/14 04:37:22;;;;;;;;;;;;;;;7.10;81.14;99560.53;2570514;30;137056;-37
2022/02/14 04:39:50;;;;;;;;;;;;;;;7.13;80.76;99560.91;2569700;30;139291;-37
2022/02/14 04:42:18;;;;;;;;;;;;;;;7.15;80.67;99555.25;2568162;30;137223;-38
2022/02/14 04:44:46;;;;;;;;;;;;;;;7.10;80.73;99555.09;2566800;30;138706;-38
2022/02/14 04:47:14;;;;;;;;;;;;;;;7.12;80.54;99558.41;2568216;30;139177;-38
2022/02/14 04:49:42;;;;;;;;;;;;;;;7.09;80.46;99554.28;2569405;30;138208;-38
2022/02/14 04:52:09;;;;;;;;;;;;;;;7.02;81.31;99557.03;2568657;30;137102;-38
2022/02/14 04:54:37;;;;;;;;;;;;;;;7.03;80.73;99558.69;2567103;30;136689;-38
2022/02/14 04:57:05;;;;;;;;;;;;;;;7.04;81.37;99563.06;2569283;30;136953;-38
2022/02/14 04:59:33;;;;;;;;;;;;;;;7.07;80.90;99563.69;2568327;30;137282;-38
2022/02/14 05:02:01;;;;;;;;;;;;;;;7.09;80.53;99558.84;2568410;30;136909;-38
2022/02/14 05:04:30;;;;;;;;;;;;;;;7.12;80.78;99555.69;2569123;30;138403;-38
2022/02/14 05:06:58;;;;;;;;;;;;;;;7.08;80.97;99557.19;2569106;30;137869;-38
2022/02/14 05:09:25;;;;;;;;;;;;;;;7.10;80.98;99561.38;2569024;30;137417;-38
2022/02/14 05:11:53;;;;;;;;;;;;;;;7.16;81.07;99567.78;2568376;30;137212;-37
2022/02/14 05:14:21;;;;;;;;;;;;;;;7.15;80.86;99547.13;2567081;30;137586;-38
2022/02/14 05:16:49;;;;;;;;;;;;;;;7.16;80.82;99554.22;2568457;30;136756;-38
2022/02/14 05:19:17;;;;;;;;;;;;;;;7.15;80.81;99553.38;2568573;30;137725;-38
2022/02/14 05:21:45;;;;;;;;;;;;;;;7.17;81.10;99540.44;2568672;30;137320;-38
2022/02/14 05:24:12;;;;;;;;;;;;;;;7.27;80.82;99531.78;2568558;30;138543;-38
2022/02/14 05:26:41;;;;;;;;;;;;;;;7.28;80.79;99533.47;2568984;30;137284;-38
2022/02/14 05:29:09;;;;;;;;;;;;;;;7.24;81.03;99543.09;2567614;30;137951;-38
2022/02/14 05:31:37;;;;;;;;;;;;;;;7.29;80.96;99534.28;2568826;30;137814;-38
2022/02/14 05:34:05;;;;;;;;;;;;;;;7.34;80.93;99537.16;2568616;30;138201;-38
2022/02/14 05:36:33;;;;;;;;;;;;;;;7.34;80.79;99542.59;2568704;30;137879;-38
2022/02/14 05:39:00;;;;;;;;;;;;;;;7.35;80.93;99549.69;2567079;30;137934;-38
2022/02/14 05:41:28;;;;;;;;;;;;;;;7.36;80.90;99539.66;2568293;30;137148;-38
2022/02/14 05:43:56;;;;;;;;;;;;;;;7.42;80.44;99546.88;2568479;30;138558;-38
2022/02/14 05:46:24;;;;;;;;;;;;;;;7.42;80.87;99546.88;2565490;30;137412;-38
2022/02/14 05:48:52;;;;;;;;;;;;;;;7.52;80.53;99546.38;2568215;30;137202;-38
2022/02/14 05:51:19;;;;;;;;;;;;;;;7.46;80.75;99545.41;2570153;30;137334;-38
2022/02/14 05:53:47;;;;;;;;;;;;;;;7.45;80.42;99536.44;2566271;30;138649;-38
2022/02/14 05:56:16;;;;;;;;;;;;;;;7.38;81.12;99546.53;2567045;30;137917;-38
2022/02/14 05:58:45;;;;;;;;;;;;;;;7.28;81.39;99547.03;2567240;30;138926;-38
2022/02/14 06:01:12;;;;;;;;;;;;;;;7.18;82.06;99541.28;2568474;30;138034;-38
2022/02/14 06:03:40;;;;;;;;;;;;;;;7.13;82.20;99532.94;2568492;30;138169;-38
2022/02/14 06:06:08;;;;;;;;;;;;;;;7.10;83.05;99527.97;2568465;30;137515;-38
2022/02/14 06:08:36;;;;;;;;;;;;;;;7.10;83.03;99541.53;2568253;30;137419;-38
2022/02/14 06:11:03;;;;;;;;;;;;;;;7.13;83.05;99549.22;2568340;30;138120;-38
2022/02/14 06:13:31;;;;;;;;;;;;;;;7.10;83.70;99542.38;2569039;30;139154;-38
2022/02/14 06:15:59;;;;;;;;;;;;;;;7.15;83.40;99536.28;2569092;30;137098;-38
2022/02/14 06:18:27;;;;;;;;;;;;;;;7.14;83.84;99545.47;2569492;30;138063;-38
2022/02/14 06:20:55;;;;;;;;;;;;;;;7.14;83.88;99537.31;2570192;30;137300;-38
2022/02/14 06:23:23;;;;;;;;;;;;;;;7.17;83.61;99550.47;2568552;30;137256;-38
2022/02/14 06:25:51;;;;;;;;;;;;;;;7.15;84.06;99555.25;2569492;30;137089;-38
2022/02/14 06:28:19;;;;;;;;;;;;;;;7.27;83.52;99549.94;2567794;30;138645;-38
2022/02/14 06:30:47;;;;;;;;;;;;;;;7.23;84.03;99554.16;2568379;30;136980;-38
2022/02/14 06:33:14;;;;;;;;;;;;;;;7.17;84.30;99553.19;2569151;30;138476;-38
2022/02/14 06:35:42;;;;;;;;;;;;;;;7.23;84.22;99555.00;2569013;30;137255;-38
2022/02/14 06:38:10;;;;;;;;;;;;;;;7.26;84.24;99553.72;2568740;30;138489;-37
2022/02/14 06:40:41;;;;;;;;;;;;;;;7.22;84.31;99552.50;2568516;30;137113;-37
2022/02/14 06:43:08;;;;;;;;;;;;;;;7.23;84.49;99557.72;2566400;30;137263;-38
2022/02/14 06:45:36;;;;;;;;;;;;;;;7.20;84.83;99550.84;2568426;30;136588;-38
2022/02/14 06:48:04;;;;;;;;;;;;;;;7.20;84.78;99550.84;2568048;30;138205;-38
2022/02/14 06:50:32;;;;;;;;;;;;;;;7.20;85.10;99550.03;2568379;30;137248;-38
2022/02/14 06:53:00;;;;;;;;;;;;;;;7.25;85.40;99563.75;2569742;30;138229;-38
2022/02/14 06:55:28;;;;;;;;;;;;;;;7.24;85.67;99564.81;2569291;30;137002;-38
2022/02/14 07:11:20;;;;;;;;;;;;;;;7.36;86.86;99554.06;2566006;30;138300;-41
2022/02/14 07:13:48;;;;;;;;;;;;;;;7.30;87.62;99561.19;2572516;30;136791;-41
2022/02/14 07:16:16;;;;;;;;;;;;;;;7.37;87.49;99563.84;2573239;30;139397;-41
2022/02/14 07:18:44;;;;;;;;;;;;;;;7.45;87.20;99562.75;2572454;30;137798;-41
2022/02/14 07:21:12;;;;;;;;;;;;;;;7.47;87.77;99563.34;2572681;30;137957;-41
2022/02/14 07:23:40;;;;;;;;;;;;;;;7.58;87.63;99568.03;2572036;30;137064;-41
2022/02/14 07:26:08;;;;;;;;;;;;;;;7.63;87.73;99560.06;2569830;30;138314;-41
2022/02/14 07:28:36;;;;;;;;;;;;;;;7.71;88.22;99552.69;2572448;30;138018;-41
2022/02/14 07:31:04;;;;;;;;;;;;;;;7.81;87.67;99565.72;2571883;30;137859;-41
2022/02/14 07:33:33;;;;;;;;;;;;;;;7.89;87.77;99571.69;2572306;30;137753;-41
2022/02/14 07:36:01;;;;;;;;;;;;;;;7.92;87.85;99575.84;2572483;30;137931;-41
2022/02/14 07:38:28;;;;;;;;;;;;;;;7.97;88.52;99573.28;2573107;30;137007;-41
2022/02/14 07:40:56;;;;;;;;;;;;;;;8.01;88.44;99570.97;2573264;30;137998;-41
2022/02/14 07:43:24;;;;;;;;;;;;;;;8.10;88.45;99577.75;2572197;30;136564;-41
2022/02/14 07:45:51;;;;;;;;;;;;;;;8.18;88.29;99580.13;2572127;30;139158;-41
2022/02/14 07:48:19;;;;;;;;;;;;;;;8.24;88.11;99572.16;2571686;30;137934;-41
2022/02/14 07:50:47;;;;;;;;;;;;;;;8.31;88.32;99581.06;2572964;30;137807;-41
2022/02/14 07:53:16;;;;;;;;;;;;;;;8.35;88.56;99574.09;2572560;30;136904;-41
2022/02/14 07:55:43;;;;;;;;;;;;;;;8.42;88.23;99572.13;2572297;30;137618;-41
2022/02/14 07:58:11;;;;;;;;;;;;;;;8.42;88.45;99568.59;2573208;30;137029;-41
2022/02/14 08:00:41;;;;;;;;;;;;;;;8.52;88.76;99565.34;2572833;30;138279;-41
2022/02/14 08:03:10;;;;;;;;;;;;;;;8.65;87.76;99576.03;2572034;30;136879;-41
2022/02/14 08:05:37;;;;;;;;;;;;;;;8.71;87.56;99579.72;2572273;30;137938;-41
2022/02/14 08:08:05;;;;;;;;;;;;;;;8.74;88.10;99580.09;2571070;30;137232;-42
2022/02/14 08:10:53;;;;;;;;;;;;;;;8.86;87.32;99571.16;2569231;30;137036;-41
2022/02/14 08:13:22;;;;;;;;;;;;;;;8.94;87.86;99567.28;2569100;30;137067;-41
2022/02/14 08:15:50;;;;;;;;;;;;;;;9.02;86.63;99556.91;2568920;30;139064;-41
2022/02/14 08:18:18;;;;;;;;;;;;;;;9.11;86.27;99567.44;2568678;30;138208;-41
2022/02/14 08:20:46;;;;;;;;;;;;;;;9.17;86.20;99577.38;2568592;30;138249;-41
2022/02/14 08:23:13;;;;;;;;;;;;;;;9.17;86.42;99590.97;2566403;30;137288;-41
2022/02/14 08:25:42;;;;;;;;;;;;;;;9.24;86.03;99585.44;2568271;30;138325;-41
2022/02/14 08:28:10;;;;;;;;;;;;;;;9.27;86.01;99591.22;2567789;30;137095;-41
2022/02/14 08:30:39;;;;;;;;;;;;;;;9.31;86.56;99594.31;2568907;30;138200;-41
2022/02/14 08:33:09;;;;;;;;;;;;;;;9.44;85.95;99593.28;2569166;30;136594;-41
2022/02/14 08:35:38;;;;;;;;;;;;;;;9.58;85.53;99593.88;2568660;30;138214;-41
2022/02/14 08:38:06;;;;;;;;;;;;;;;9.73;84.83;99604.28;2569386;30;137007;-41
2022/02/14 08:40:34;;;;;;;;;;;;;;;9.86;84.15;99601.34;2568143;30;138146;-42
2022/02/14 08:43:03;;;;;;;;;;;;;;;9.91;84.00;99603.34;2569114;30;137270;-41
2022/02/14 08:45:47;;;;;;;;;;;;;;;9.93;83.61;99596.59;2569326;30;138476;-41
2022/02/14 08:48:15;;;;;;;;;;;;;;;9.99;84.98;99596.69;2569823;30;136571;-41
2022/02/14 08:50:44;;;;;;;;;;;;;;;10.10;84.66;99592.31;2568978;30;137833;-41
2022/02/14 08:53:11;;;;;;;;;;;;;;;10.24;83.21;99596.44;2569303;30;136795;-41
2022/02/14 08:55:39;;;;;;;;;;;;;;;10.32;82.50;99597.94;2568977;30;138984;-42
2022/02/14 08:58:07;;;;;;;;;;;;;;;10.39;82.60;99598.66;2567356;30;137848;-41
2022/02/14 09:00:35;;;;;;;;;;;;;;;10.46;82.19;99599.38;2569415;30;138169;-41
2022/02/14 09:03:03;;;;;;;;;;;;;;;10.49;82.72;99604.34;2568057;30;137063;-41
2022/02/14 09:05:32;;;;;;;;;;;;;;;10.58;82.08;99593.88;2569030;30;139901;-41
2022/02/14 09:07:59;;;;;;;;;;;;;;;10.57;82.07;99614.03;2568246;30;137352;-41
2022/02/14 09:10:27;;;;;;;;;;;;;;;10.60;82.23;99604.53;2567308;30;138319;-41
2022/02/14 09:12:55;;;;;;;;;;;;;;;10.55;82.15;99607.16;2568928;30;137274;-41
2022/02/14 09:15:25;;;;;;;;;;;;;;;10.56;82.98;99603.34;2570118;30;137073;-41
2022/02/14 09:17:53;;;;;;;;;;;;;;;10.56;81.70;99614.28;2569131;30;136871;-41
2022/02/14 09:20:23;;;;;;;;;;;;;;;10.55;83.15;99612.59;2567313;30;138999;-41
2022/02/14 09:22:51;;;;;;;;;;;;;;;10.59;82.31;99609.16;2569426;30;137937;-41
2022/02/14 09:25:20;;;;;;;;;;;;;;;10.66;82.11;99614.50;2565479;30;137954;-41
2022/02/14 09:27:49;;;;;;;;;;;;;;;10.69;82.26;99615.88;2566656;30;137158;-41
2022/02/14 09:30:17;;;;;;;;;;;;;;;10.67;83.50;99618.88;2566356;30;138360;-41
2022/02/14 09:32:45;;;;;;;;;;;;;;;10.72;82.61;99629.88;2568136;30;137345;-41
2022/02/14 09:35:25;;;;;;;;;;;;;;;10.70;82.49;99632.03;2569087;30;138919;-41
2022/02/14 09:37:53;;;;;;;;;;;;;;;10.73;82.53;99633.41;2568628;30;137951;-41
2022/02/14 09:40:22;;;;;;;;;;;;;;;10.56;83.00;99609.66;2568151;30;138947;-41
2022/02/14 09:43:08;;;;;;;;;;;;;;;10.67;83.59;99634.41;2568576;30;137158;-41
2022/02/14 09:45:36;;;;;;;;;;;;;;;10.62;84.12;99635.94;2568542;30;137586;-41
2022/02/14 09:48:06;;;;;;;;;;;;;;;10.62;84.11;99616.06;2567998;30;137251;-41
2022/02/14 09:50:35;;;;;;;;;;;;;;;10.52;85.37;99649.41;2567074;30;137265;-41
2022/02/14 09:53:06;;;;;;;;;;;;;;;10.52;86.94;99651.28;2569216;30;136763;-41
2022/02/14 09:55:44;;;;;;;;;;;;;;;10.45;86.96;99660.44;2567648;30;137971;-41
2022/02/14 09:58:12;;;;;;;;;;;;;;;10.42;87.67;99660.06;2568047;30;137211;-42
2022/02/14 10:00:40;;;;;;;;;;;;;;;10.45;88.50;99665.88;2567979;30;137180;-41
2022/02/14 10:03:11;;;;;;;;;;;;;;;10.47;88.81;99668.34;2568740;30;137660;-41
2022/02/14 10:05:43;;;;;;;;;;;;;;;10.55;88.86;99668.00;2568923;30;139109;-41
2022/02/14 10:08:17;;;;;;;;;;;;;;;10.59;88.57;99671.06;2566032;30;137601;-41
2022/02/14 10:10:46;;;;;;;;;;;;;;;10.73;88.13;99691.56;2567686;30;138419;-41
2022/02/14 10:13:45;;;;;;;;;;;;;;;10.73;85.74;99683.38;2568907;30;136592;-41
2022/02/14 10:16:14;;;;;;;;;;;;;;;10.84;86.17;99689.00;2568101;30;137095;-42
2022/02/14 10:18:42;;;;;;;;;;;;;;;10.87;85.30;99692.09;2569105;30;137462;-41
2022/02/14 10:21:26;;;;;;;;;;;;;;;10.91;84.45;99701.44;2568543;30;138305;-41
2022/02/14 10:24:00;;;;;;;;;;;;;;;10.99;84.33;99700.25;2568937;30;137035;-41
2022/02/14 10:26:29;;;;;;;;;;;;;;;11.01;83.38;99702.75;2568110;30;138297;-41
2022/02/14 10:28:57;;;;;;;;;;;;;;;11.00;82.32;99711.97;2568955;30;137358;-41
2022/02/14 10:31:24;;;;;;;;;;;;;;;10.96;82.50;99699.91;2565771;30;139366;-41
2022/02/14 10:33:53;;;;;;;;;;;;;;;11.02;82.54;99712.59;2568843;30;137079;-41
2022/02/14 10:36:27;;;;;;;;;;;;;;;11.00;81.33;99725.63;2567859;30;138226;-41
2022/02/14 10:38:56;;;;;;;;;;;;;;;10.99;79.27;99727.53;2568557;30;137061;-41
2022/02/14 10:41:26;;;;;;;;;;;;;;;10.93;78.45;99732.06;2567208;30;139223;-41
2022/02/14 10:44:03;;;;;;;;;;;;;;;11.04;77.86;99733.09;2568340;30;136908;-41
2022/02/14 10:46:32;;;;;;;;;;;;;;;11.09;76.53;99740.56;2569599;30;138884;-41
2022/02/14 10:49:01;;;;;;;;;;;;;;;11.17;75.47;99739.34;2569570;30;137306;-41
2022/02/14 10:51:53;;;;;;;;;;;;;;;11.21;74.01;99744.06;2568543;30;138634;-41
2022/02/14 10:54:25;;;;;;;;;;;;;;;11.12;73.21;99752.88;2568107;30;138314;-41
2022/02/14 10:56:52;;;;;;;;;;;;;;;10.92;73.13;99771.34;2567860;30;137926;-41
2022/02/14 10:59:22;;;;;;;;;;;;;;;10.86;74.77;99766.00;2568318;30;137132;-41
2022/02/14 11:01:50;;;;;;;;;;;;;;;11.02;74.66;99765.25;2567302;30;139419;-42
2022/02/14 11:04:18;;;;;;;;;;;;;;;11.24;73.79;99772.81;2568629;30;138031;-41
2022/02/14 11:06:46;;;;;;;;;;;;;;;11.29;72.43;99781.09;2568537;30;139010;-41
2022/02/14 11:09:15;;;;;;;;;;;;;;;11.31;71.37;99776.22;2567621;30;137152;-41
2022/02/14 11:11:45;;;;;;;;;;;;;;;11.24;71.72;99783.72;2569238;30;138412;-41
2022/02/14 11:14:14;;;;;;;;;;;;;;;11.27;70.01;99790.59;2567544;30;136633;-41
2022/02/14 11:16:41;;;;;;;;;;;;;;;11.35;69.37;99790.22;2567393;30;137163;-41
2022/02/14 11:19:10;;;;;;;;;;;;;;;11.38;68.37;99787.00;2568429;30;137333;-41
2022/02/14 11:21:39;;;;;;;;;;;;;;;11.36;69.13;99794.59;2567388;30;137138;-41
2022/02/14 11:24:13;;;;;;;;;;;;;;;11.33;68.31;99787.72;2567297;30;137088;-41
2022/02/14 11:26:55;;;;;;;;;;;;;;;11.31;70.04;99784.41;2569629;30;137059;-41
2022/02/14 11:29:32;;;;;;;;;;;;;;;11.34;71.18;99789.38;2565880;30;136850;-41
2022/02/14 11:32:23;;;;;;;;;;;;;;;11.49;70.62;99785.28;2568009;30;138461;-41
2022/02/14 11:34:50;;;;;;;;;;;;;;;11.52;70.46;99790.25;2565956;30;137923;-41
2022/02/14 11:37:18;;;;;;;;;;;;;;;11.65;70.89;99792.69;2568750;30;138393;-41
2022/02/14 11:39:46;;;;;;;;;;;;;;;11.74;68.41;99781.38;2567613;30;137229;-41
2022/02/14 11:42:14;;;;;;;;;;;;;;;11.71;69.25;99793.63;2567976;30;137313;-41
2022/02/14 11:44:43;;;;;;;;;;;;;;;11.72;69.67;99799.94;2569926;30;137047;-41
2022/02/14 11:47:11;;;;;;;;;;;;;;;11.83;70.32;99807.22;2569745;30;138139;-41
2022/02/14 11:49:46;;;;;;;;;;;;;;;11.88;69.57;99804.56;2568910;30;137135;-41
2022/02/14 11:52:28;;;;;;;;;;;;;;;11.74;67.65;99793.13;2569435;30;138325;-41
2022/02/14 11:55:02;;;;;;;;;;;;;;;11.55;66.99;99800.69;2568492;30;138179;-41
2022/02/14 11:57:33;;;;;;;;;;;;;;;11.34;67.32;99800.28;2569582;30;138039;-41
2022/02/14 12:00:18;;;;;;;;;;;;;;;11.25;68.54;99806.38;2569530;30;137341;-41
2022/02/14 12:02:55;;;;;;;;;;;;;;;11.15;68.51;99807.84;2568635;30;137600;-41
2022/02/14 12:05:39;;;;;;;;;;;;;;;11.02;69.55;99810.84;2568361;30;137128;-40
2022/02/14 12:08:07;;;;;;;;;;;;;;;10.96;70.48;99809.06;2568849;30;139297;-40
2022/02/14 12:10:55;;;;;;;;;;;;;;;10.85;69.14;99814.31;2569519;30;137073;-41
2022/02/14 12:13:24;;;;;;;;;;;;;;;10.70;70.08;99812.06;2567913;30;138218;-41
2022/02/14 12:21:15;;;;;;;;;;;;;;;10.58;73.58;99822.97;2566406;30;136710;-41
2022/02/14 12:24:12;;;;;;;;;;;;;;;10.45;71.66;99832.22;2568658;30;138189;-40
2022/02/14 12:26:40;;;;;;;;;;;;;;;10.39;72.59;99827.69;2567418;30;136824;-40
2022/02/14 12:32:04;;;;;;;;;;;;;;;10.19;73.02;99834.28;2567005;30;136850;-41
2022/02/14 12:34:33;;;;;;;;;;;;;;;10.18;73.72;99837.22;2568179;30;138066;-41
2022/02/14 12:37:02;;;;;;;;;;;;;;;10.16;75.03;99833.91;2568955;30;137203;-40
2022/02/14 12:39:31;;;;;;;;;;;;;;;10.21;73.28;99837.59;2566662;30;137369;-41
2022/02/14 12:42:13;;;;;;;;;;;;;;;10.32;74.80;99833.25;2569120;30;137094;-41
2022/02/14 12:44:41;;;;;;;;;;;;;;;10.42;74.42;99831.84;2568488;30;139116;-41
2022/02/14 12:47:10;;;;;;;;;;;;;;;10.50;72.50;99826.88;2568887;30;137403;-40
2022/02/14 12:49:40;;;;;;;;;;;;;;;10.56;71.89;99827.84;2568189;30;138150;-40
2022/02/14 12:52:14;;;;;;;;;;;;;;;10.61;70.53;99827.13;2567229;30;137124;-41
2022/02/14 12:54:59;;;;;;;;;;;;;;;10.64;69.78;99822.03;2567629;30;137484;-40
2022/02/14 12:57:46;;;;;;;;;;;;;;;10.63;70.75;99830.47;2569327;30;137143;-41
2022/02/14 13:00:19;;;;;;;;;;;;;;;10.59;69.99;99818.34;2569868;30;138282;-41
2022/02/14 13:02:48;;;;;;;;;;;;;;;10.62;70.44;99828.81;2568105;30;137002;-41
2022/02/14 13:05:16;;;;;;;;;;;;;;;10.63;70.16;99820.38;2568509;30;139165;-40
2022/02/14 13:07:45;;;;;;;;;;;;;;;10.61;69.13;99814.31;2567942;30;136727;-41
2022/02/14 13:10:13;;;;;;;;;;;;;;;10.73;69.55;99824.38;2572640;30;138465;-38
2022/02/14 13:12:58;;;;;;;;;;;;;;;10.84;70.06;99822.72;2569601;30;136886;-38
2022/02/14 13:15:25;;;;;;;;;;;;;;;11.12;67.59;99821.97;2568147;30;139432;-39
2022/02/14 13:17:53;;;;;;;;;;;;;;;11.24;67.91;99827.41;2568027;30;137193;-38
2022/02/14 13:20:22;;;;;;;;;;;;;;;11.20;67.28;99835.25;2569258;30;139287;-38
2022/02/14 13:22:50;;;;;;;;;;;;;;;11.26;69.84;99830.72;2568283;30;138178;-38
2022/02/14 13:25:48;;;;;;;;;;;;;;;11.34;68.50;99838.53;2566873;30;138462;-38
2022/02/14 13:28:16;;;;;;;;;;;;;;;11.45;67.32;99833.28;2567973;30;137273;-38
2022/02/14 13:30:44;;;;;;;;;;;;;;;11.60;67.55;99832.75;2568558;30;138493;-38
2022/02/14 13:33:24;;;;;;;;;;;;;;;11.69;66.34;99825.81;2567058;30;137365;-38
2022/02/14 13:35:59;;;;;;;;;;;;;;;11.64;66.45;99832.00;2567229;30;138092;-38
2022/02/14 13:38:37;;;;;;;;;;;;;;;11.53;67.58;99824.69;2568026;30;137782;-38
2022/02/14 13:41:10;;;;;;;;;;;;;;;11.36;65.67;99830.91;2568892;30;139077;-38
2022/02/14 13:43:39;;;;;;;;;;;;;;;11.41;67.23;99827.47;2569274;30;138230;-38
2022/02/14 13:46:10;;;;;;;;;;;;;;;11.53;66.79;99830.16;2568117;30;137727;-39
2022/02/14 13:48:46;;;;;;;;;;;;;;;11.64;66.88;99837.47;2569329;30;137074;-38
2022/02/14 13:51:24;;;;;;;;;;;;;;;11.68;66.17;99832.34;2568955;30;138553;-38
2022/02/14 13:54:14;;;;;;;;;;;;;;;11.53;65.37;99849.28;2568233;30;137033;-38
2022/02/14 13:56:45;;;;;;;;;;;;;;;11.28;65.83;99834.03;2568630;30;137410;-38
2022/02/14 13:59:15;;;;;;;;;;;;;;;11.18;67.43;99839.28;2569876;30;137913;-39
2022/02/14 14:01:43;;;;;;;;;;;;;;;11.13;65.42;99840.00;2567530;30;138195;-38
2022/02/14 14:04:28;;;;;;;;;;;;;;;11.08;65.08;99851.63;2566808;30;137256;-38
2022/02/14 14:07:09;;;;;;;;;;;;;;;11.03;63.60;99856.19;2568376;30;138322;-38
2022/02/14 14:09:41;;;;;;;;;;;;;;;10.93;66.35;99846.66;2570020;30;136984;-38
2022/02/14 14:12:11;;;;;;;;;;;;;;;10.90;66.98;99849.06;2568983;30;139110;-38
2022/02/14 14:14:40;;;;;;;;;;;;;;;10.92;66.66;99857.84;2568629;30;137136;-38
2022/02/14 14:17:12;;;;;;;;;;;;;;;10.94;67.62;99861.16;2569258;30;138281;-38
2022/02/14 14:19:47;;;;;;;;;;;;;;;10.94;68.42;99864.72;2568870;30;137959;-38
2022/02/14 14:22:16;;;;;;;;;;;;;;;10.92;67.72;99850.47;2568678;30;138404;-38
2022/02/14 14:24:44;;;;;;;;;;;;;;;10.85;67.66;99870.75;2568654;30;138021;-38
2022/02/14 14:27:12;;;;;;;;;;;;;;;10.82;68.34;99884.88;2568007;30;139012;-37
2022/02/14 14:29:41;;;;;;;;;;;;;;;10.72;67.45;99869.94;2567677;30;137790;-38
2022/02/14 14:32:10;;;;;;;;;;;;;;;10.61;68.35;99860.69;2567184;30;138210;-38
2022/02/14 14:34:38;;;;;;;;;;;;;;;10.50;68.09;99859.59;2568925;30;136837;-38
2022/02/14 14:37:06;;;;;;;;;;;;;;;10.50;68.05;99867.78;2567077;30;138080;-38
2022/02/14 14:39:35;;;;;;;;;;;;;;;10.45;69.40;99873.13;2568147;30;137713;-39
2022/02/14 14:42:04;;;;;;;;;;;;;;;10.36;68.03;99864.41;2567910;30;138476;-38
2022/02/14 14:44:32;;;;;;;;;;;;;;;10.40;69.70;99875.72;2568657;30;137102;-38
2022/02/14 14:47:02;;;;;;;;;;;;;;;10.35;69.87;99864.66;2568143;30;138173;-38
2022/02/14 14:49:32;;;;;;;;;;;;;;;10.30;70.35;99872.69;2567460;30;138530;-38
2022/02/14 14:52:00;;;;;;;;;;;;;;;10.25;70.20;99872.56;2567744;30;138345;-39
2022/02/14 14:54:31;;;;;;;;;;;;;;;10.15;70.76;99882.16;2566787;30;137101;-38
2022/02/14 14:57:01;;;;;;;;;;;;;;;10.15;69.14;99875.88;2566766;30;138390;-38
2022/02/14 14:59:30;;;;;;;;;;;;;;;10.11;70.09;99886.41;2568998;30;136929;-38
2022/02/14 15:01:58;;;;;;;;;;;;;;;10.19;70.51;99883.34;2568451;30;138836;-38
2022/02/14 15:04:26;;;;;;;;;;;;;;;10.16;70.04;99883.81;2568968;30;137280;-38
2022/02/14 15:06:55;;;;;;;;;;;;;;;10.17;71.66;99885.47;2567092;30;139036;-38